sensor_id;sensor_type;location;lat;lon;timestamp;temperature;humidity
11664;DHT22;72375;59.302;18.204;2023-08-24T00:00:11;18.90;89.10
11664;DHT22;72375;59.302;18.204;2023-08-24T00:02:58;18.90;89.10
11664;DHT22;72375;59.302;18.204;2023-08-24T00:05:43;18.80;89.10
11664;DHT22;72375;59.302;18.204;2023-08-24T00:08:30;18.80;89.40
11664;DHT22;72375;59.302;18.204;2023-08-24T00:11:16;18.80;89.70
11664;DHT22;72375;59.302;18.204;2023-08-24T00:14:02;18.80;89.80
11664;DHT22;72375;59.302;18.204;2023-08-24T00:16:48;18.80;90.00
11664;DHT22;72375;59.302;18.204;2023-08-24T00:19:33;18.80;90.00
11664;DHT22;72375;59.302;18.204;2023-08-24T00:22:19;18.70;89.90
11664;DHT22;72375;59.302;18.204;2023-08-24T00:25:07;18.70;89.90
11664;DHT22;72375;59.302;18.204;2023-08-24T00:27:53;18.80;90.10
11664;DHT22;72375;59.302;18.204;2023-08-24T00:30:39;18.70;90.20
11664;DHT22;72375;59.302;18.204;2023-08-24T00:33:24;18.70;90.20
11664;DHT22;72375;59.302;18.204;2023-08-24T00:36:10;18.70;90.30
11664;DHT22;72375;59.302;18.204;2023-08-24T00:38:56;18.70;90.30
11664;DHT22;72375;59.302;18.204;2023-08-24T00:41:43;18.70;90.30
11664;DHT22;72375;59.302;18.204;2023-08-24T00:44:29;18.60;90.50
11664;DHT22;72375;59.302;18.204;2023-08-24T00:47:16;18.70;90.50
11664;DHT22;72375;59.302;18.204;2023-08-24T00:50:02;18.60;90.60
11664;DHT22;72375;59.302;18.204;2023-08-24T00:52:49;18.60;90.70
11664;DHT22;72375;59.302;18.204;2023-08-24T00:55:35;18.60;90.70
11664;DHT22;72375;59.302;18.204;2023-08-24T00:58:22;18.60;90.70
11664;DHT22;72375;59.302;18.204;2023-08-24T01:01:08;18.60;90.70
11664;DHT22;72375;59.302;18.204;2023-08-24T01:03:54;18.60;90.80
11664;DHT22;72375;59.302;18.204;2023-08-24T01:06:40;18.60;90.70
11664;DHT22;72375;59.302;18.204;2023-08-24T01:09:26;18.60;90.70
11664;DHT22;72375;59.302;18.204;2023-08-24T01:12:20;18.60;90.80
11664;DHT22;72375;59.302;18.204;2023-08-24T01:15:14;18.50;90.80
11664;DHT22;72375;59.302;18.204;2023-08-24T01:18:05;18.50;91.00
11664;DHT22;72375;59.302;18.204;2023-08-24T01:20:51;18.50;91.10
11664;DHT22;72375;59.302;18.204;2023-08-24T01:23:43;18.50;91.30
11664;DHT22;72375;59.302;18.204;2023-08-24T01:26:32;18.50;91.40
11664;DHT22;72375;59.302;18.204;2023-08-24T01:29:19;18.50;91.50
11664;DHT22;72375;59.302;18.204;2023-08-24T01:32:05;18.50;91.50
11664;DHT22;72375;59.302;18.204;2023-08-24T01:34:51;18.50;91.60
11664;DHT22;72375;59.302;18.204;2023-08-24T01:37:37;18.50;91.70
11664;DHT22;72375;59.302;18.204;2023-08-24T01:40:26;18.50;91.70
11664;DHT22;72375;59.302;18.204;2023-08-24T01:43:19;18.50;91.60
11664;DHT22;72375;59.302;18.204;2023-08-24T01:46:07;18.40;91.70
11664;DHT22;72375;59.302;18.204;2023-08-24T01:48:53;18.40;91.60
11664;DHT22;72375;59.302;18.204;2023-08-24T01:51:39;18.40;91.60
11664;DHT22;72375;59.302;18.204;2023-08-24T01:54:26;18.40;91.60
11664;DHT22;72375;59.302;18.204;2023-08-24T01:57:12;18.40;91.70
11664;DHT22;72375;59.302;18.204;2023-08-24T02:00:00;18.40;91.60
11664;DHT22;72375;59.302;18.204;2023-08-24T02:02:45;18.40;91.80
11664;DHT22;72375;59.302;18.204;2023-08-24T02:05:31;18.40;91.90
11664;DHT22;72375;59.302;18.204;2023-08-24T02:08:16;18.40;91.90
11664;DHT22;72375;59.302;18.204;2023-08-24T02:11:02;18.30;92.00
11664;DHT22;72375;59.302;18.204;2023-08-24T02:13:48;18.30;92.00
11664;DHT22;72375;59.302;18.204;2023-08-24T02:16:35;18.40;92.30
11664;DHT22;72375;59.302;18.204;2023-08-24T02:19:21;18.30;92.30
11664;DHT22;72375;59.302;18.204;2023-08-24T02:22:07;18.30;92.30
11664;DHT22;72375;59.302;18.204;2023-08-24T02:24:52;18.30;92.20
11664;DHT22;72375;59.302;18.204;2023-08-24T02:27:38;18.30;92.30
11664;DHT22;72375;59.302;18.204;2023-08-24T02:30:23;18.30;92.30
11664;DHT22;72375;59.302;18.204;2023-08-24T02:33:10;18.30;92.20
11664;DHT22;72375;59.302;18.204;2023-08-24T02:35:56;18.30;92.20
11664;DHT22;72375;59.302;18.204;2023-08-24T02:38:42;18.20;92.20
11664;DHT22;72375;59.302;18.204;2023-08-24T02:41:28;18.20;92.40
11664;DHT22;72375;59.302;18.204;2023-08-24T02:44:14;18.20;92.60
11664;DHT22;72375;59.302;18.204;2023-08-24T02:46:59;18.20;92.70
11664;DHT22;72375;59.302;18.204;2023-08-24T02:49:46;18.20;92.70
11664;DHT22;72375;59.302;18.204;2023-08-24T02:52:32;18.20;92.70
11664;DHT22;72375;59.302;18.204;2023-08-24T02:55:18;18.20;92.80
11664;DHT22;72375;59.302;18.204;2023-08-24T02:58:04;18.20;92.80
11664;DHT22;72375;59.302;18.204;2023-08-24T03:00:49;18.20;92.80
11664;DHT22;72375;59.302;18.204;2023-08-24T03:03:36;18.20;92.90
11664;DHT22;72375;59.302;18.204;2023-08-24T03:06:23;18.10;93.00
11664;DHT22;72375;59.302;18.204;2023-08-24T03:09:09;18.10;93.00
11664;DHT22;72375;59.302;18.204;2023-08-24T03:11:55;18.10;93.00
11664;DHT22;72375;59.302;18.204;2023-08-24T03:14:41;18.10;93.10
11664;DHT22;72375;59.302;18.204;2023-08-24T03:17:26;18.10;93.10
11664;DHT22;72375;59.302;18.204;2023-08-24T03:20:12;18.10;93.10
11664;DHT22;72375;59.302;18.204;2023-08-24T03:22:59;18.10;93.20
11664;DHT22;72375;59.302;18.204;2023-08-24T03:25:45;18.10;93.20
11664;DHT22;72375;59.302;18.204;2023-08-24T03:28:31;18.10;93.30
11664;DHT22;72375;59.302;18.204;2023-08-24T03:31:16;18.10;93.30
11664;DHT22;72375;59.302;18.204;2023-08-24T03:34:02;18.10;93.30
11664;DHT22;72375;59.302;18.204;2023-08-24T03:36:49;18.10;93.30
11664;DHT22;72375;59.302;18.204;2023-08-24T03:39:38;18.10;93.40
11664;DHT22;72375;59.302;18.204;2023-08-24T03:42:24;18.00;93.40
11664;DHT22;72375;59.302;18.204;2023-08-24T03:45:09;18.00;93.50
11664;DHT22;72375;59.302;18.204;2023-08-24T03:47:55;18.00;93.50
11664;DHT22;72375;59.302;18.204;2023-08-24T03:50:41;18.00;93.60
11664;DHT22;72375;59.302;18.204;2023-08-24T03:53:27;18.00;93.60
11664;DHT22;72375;59.302;18.204;2023-08-24T03:56:14;18.00;93.60
11664;DHT22;72375;59.302;18.204;2023-08-24T03:59:00;18.00;93.50
11664;DHT22;72375;59.302;18.204;2023-08-24T04:01:46;18.00;93.50
11664;DHT22;72375;59.302;18.204;2023-08-24T04:04:31;18.00;93.40
11664;DHT22;72375;59.302;18.204;2023-08-24T04:07:17;18.00;93.40
11664;DHT22;72375;59.302;18.204;2023-08-24T04:10:03;18.00;93.50
11664;DHT22;72375;59.302;18.204;2023-08-24T04:12:50;18.00;93.70
11664;DHT22;72375;59.302;18.204;2023-08-24T04:15:35;18.00;93.70
11664;DHT22;72375;59.302;18.204;2023-08-24T04:18:21;18.00;93.60
11664;DHT22;72375;59.302;18.204;2023-08-24T04:21:07;18.00;93.70
11664;DHT22;72375;59.302;18.204;2023-08-24T04:23:53;18.00;93.80
11664;DHT22;72375;59.302;18.204;2023-08-24T04:26:38;18.00;93.80
11664;DHT22;72375;59.302;18.204;2023-08-24T04:29:25;18.00;93.70
11664;DHT22;72375;59.302;18.204;2023-08-24T04:32:12;18.00;93.80
11664;DHT22;72375;59.302;18.204;2023-08-24T04:34:57;18.00;93.90
11664;DHT22;72375;59.302;18.204;2023-08-24T04:37:43;18.00;93.80
11664;DHT22;72375;59.302;18.204;2023-08-24T04:40:29;18.00;93.70
11664;DHT22;72375;59.302;18.204;2023-08-24T04:43:14;18.00;93.80
11664;DHT22;72375;59.302;18.204;2023-08-24T04:46:01;18.00;93.70
11664;DHT22;72375;59.302;18.204;2023-08-24T04:48:48;18.00;93.70
11664;DHT22;72375;59.302;18.204;2023-08-24T04:51:34;18.00;93.60
11664;DHT22;72375;59.302;18.204;2023-08-24T04:54:19;18.00;93.60
11664;DHT22;72375;59.302;18.204;2023-08-24T04:57:05;18.00;93.70
11664;DHT22;72375;59.302;18.204;2023-08-24T04:59:51;18.00;93.70
11664;DHT22;72375;59.302;18.204;2023-08-24T05:02:38;18.00;93.70
11664;DHT22;72375;59.302;18.204;2023-08-24T05:05:24;18.00;93.70
11664;DHT22;72375;59.302;18.204;2023-08-24T05:08:10;18.00;93.70
11664;DHT22;72375;59.302;18.204;2023-08-24T05:10:56;18.10;93.80
11664;DHT22;72375;59.302;18.204;2023-08-24T05:13:41;18.10;93.80
11664;DHT22;72375;59.302;18.204;2023-08-24T05:16:26;18.10;93.80
11664;DHT22;72375;59.302;18.204;2023-08-24T05:19:14;18.20;93.80
11664;DHT22;72375;59.302;18.204;2023-08-24T05:22:00;18.20;93.70
11664;DHT22;72375;59.302;18.204;2023-08-24T05:24:47;18.30;93.70
11664;DHT22;72375;59.302;18.204;2023-08-24T05:27:32;18.30;93.80
11664;DHT22;72375;59.302;18.204;2023-08-24T05:30:18;18.30;93.90
11664;DHT22;72375;59.302;18.204;2023-08-24T05:33:04;18.30;93.90
11664;DHT22;72375;59.302;18.204;2023-08-24T05:35:51;18.40;94.10
11664;DHT22;72375;59.302;18.204;2023-08-24T05:38:37;18.40;94.10
11664;DHT22;72375;59.302;18.204;2023-08-24T05:41:23;18.40;94.10
11664;DHT22;72375;59.302;18.204;2023-08-24T05:44:08;18.40;94.00
11664;DHT22;72375;59.302;18.204;2023-08-24T05:46:54;18.40;94.10
11664;DHT22;72375;59.302;18.204;2023-08-24T05:49:39;18.50;94.00
11664;DHT22;72375;59.302;18.204;2023-08-24T05:52:26;18.50;93.90
11664;DHT22;72375;59.302;18.204;2023-08-24T05:55:12;18.50;93.90
11664;DHT22;72375;59.302;18.204;2023-08-24T05:57:58;18.50;93.90
11664;DHT22;72375;59.302;18.204;2023-08-24T06:00:43;18.60;93.90
11664;DHT22;72375;59.302;18.204;2023-08-24T06:03:30;18.60;93.90
11664;DHT22;72375;59.302;18.204;2023-08-24T06:06:15;18.60;94.10
11664;DHT22;72375;59.302;18.204;2023-08-24T06:09:03;18.70;94.10
11664;DHT22;72375;59.302;18.204;2023-08-24T06:11:49;18.70;94.00
11664;DHT22;72375;59.302;18.204;2023-08-24T06:14:35;18.70;94.00
11664;DHT22;72375;59.302;18.204;2023-08-24T06:17:20;18.70;94.00
11664;DHT22;72375;59.302;18.204;2023-08-24T06:20:07;18.80;94.00
11664;DHT22;72375;59.302;18.204;2023-08-24T06:22:54;18.80;94.00
11664;DHT22;72375;59.302;18.204;2023-08-24T06:25:41;18.90;94.00
11664;DHT22;72375;59.302;18.204;2023-08-24T06:28:27;18.90;94.00
11664;DHT22;72375;59.302;18.204;2023-08-24T06:31:13;18.90;93.90
11664;DHT22;72375;59.302;18.204;2023-08-24T06:33:59;19.00;93.90
11664;DHT22;72375;59.302;18.204;2023-08-24T06:36:44;19.10;93.90
11664;DHT22;72375;59.302;18.204;2023-08-24T06:39:30;19.10;93.90
11664;DHT22;72375;59.302;18.204;2023-08-24T06:42:17;19.10;93.80
11664;DHT22;72375;59.302;18.204;2023-08-24T06:45:03;19.20;93.80
11664;DHT22;72375;59.302;18.204;2023-08-24T06:47:49;19.20;93.80
11664;DHT22;72375;59.302;18.204;2023-08-24T06:50:35;19.20;93.80
11664;DHT22;72375;59.302;18.204;2023-08-24T06:53:21;19.20;93.80
11664;DHT22;72375;59.302;18.204;2023-08-24T06:56:07;19.30;93.80
11664;DHT22;72375;59.302;18.204;2023-08-24T06:58:54;19.30;93.70
11664;DHT22;72375;59.302;18.204;2023-08-24T07:01:40;19.40;93.60
11664;DHT22;72375;59.302;18.204;2023-08-24T07:04:26;19.50;93.50
11664;DHT22;72375;59.302;18.204;2023-08-24T07:07:12;19.60;93.50
11664;DHT22;72375;59.302;18.204;2023-08-24T07:09:57;19.70;93.30
11664;DHT22;72375;59.302;18.204;2023-08-24T07:12:43;19.90;93.40
11664;DHT22;72375;59.302;18.204;2023-08-24T07:15:31;20.10;93.20
11664;DHT22;72375;59.302;18.204;2023-08-24T07:18:18;20.40;93.00
11664;DHT22;72375;59.302;18.204;2023-08-24T07:21:04;20.50;92.90
11664;DHT22;72375;59.302;18.204;2023-08-24T07:23:50;20.60;92.70
11664;DHT22;72375;59.302;18.204;2023-08-24T07:26:35;20.60;92.60
11664;DHT22;72375;59.302;18.204;2023-08-24T07:29:21;20.60;92.50
11664;DHT22;72375;59.302;18.204;2023-08-24T07:32:08;20.60;92.40
11664;DHT22;72375;59.302;18.204;2023-08-24T07:34:54;20.50;92.20
11664;DHT22;72375;59.302;18.204;2023-08-24T07:37:41;20.60;92.30
11664;DHT22;72375;59.302;18.204;2023-08-24T07:40:27;20.70;92.50
11664;DHT22;72375;59.302;18.204;2023-08-24T07:43:12;20.80;92.40
11664;DHT22;72375;59.302;18.204;2023-08-24T07:45:58;20.80;92.20
11664;DHT22;72375;59.302;18.204;2023-08-24T07:48:45;20.80;92.10
11664;DHT22;72375;59.302;18.204;2023-08-24T07:51:32;20.70;91.90
11664;DHT22;72375;59.302;18.204;2023-08-24T07:54:17;20.70;92.00
11664;DHT22;72375;59.302;18.204;2023-08-24T07:57:04;20.60;92.00
11664;DHT22;72375;59.302;18.204;2023-08-24T07:59:50;20.50;92.10
11664;DHT22;72375;59.302;18.204;2023-08-24T08:02:35;20.50;92.10
11664;DHT22;72375;59.302;18.204;2023-08-24T08:05:23;20.60;92.10
11664;DHT22;72375;59.302;18.204;2023-08-24T08:08:09;20.70;91.90
11664;DHT22;72375;59.302;18.204;2023-08-24T08:10:58;20.90;91.80
11664;DHT22;72375;59.302;18.204;2023-08-24T08:13:45;21.20;91.70
11664;DHT22;72375;59.302;18.204;2023-08-24T08:16:30;21.30;91.40
11664;DHT22;72375;59.302;18.204;2023-08-24T08:19:16;21.30;91.30
11664;DHT22;72375;59.302;18.204;2023-08-24T08:22:05;21.50;91.30
11664;DHT22;72375;59.302;18.204;2023-08-24T08:24:50;21.60;91.10
11664;DHT22;72375;59.302;18.204;2023-08-24T08:27:38;21.80;91.00
11664;DHT22;72375;59.302;18.204;2023-08-24T08:30:24;22.00;90.80
11664;DHT22;72375;59.302;18.204;2023-08-24T08:33:10;22.10;90.60
11664;DHT22;72375;59.302;18.204;2023-08-24T08:35:56;22.20;90.40
11664;DHT22;72375;59.302;18.204;2023-08-24T08:38:43;22.40;90.30
11664;DHT22;72375;59.302;18.204;2023-08-24T08:41:33;22.40;90.20
11664;DHT22;72375;59.302;18.204;2023-08-24T08:44:19;22.50;90.20
11664;DHT22;72375;59.302;18.204;2023-08-24T08:47:07;22.60;90.10
11664;DHT22;72375;59.302;18.204;2023-08-24T08:49:55;22.60;90.10
11664;DHT22;72375;59.302;18.204;2023-08-24T08:52:40;22.50;90.50
11664;DHT22;72375;59.302;18.204;2023-08-24T08:55:28;22.50;90.20
11664;DHT22;72375;59.302;18.204;2023-08-24T08:58:14;22.40;90.20
11664;DHT22;72375;59.302;18.204;2023-08-24T09:01:02;22.30;90.20
11664;DHT22;72375;59.302;18.204;2023-08-24T09:03:48;22.40;90.20
11664;DHT22;72375;59.302;18.204;2023-08-24T09:06:35;22.50;90.20
11664;DHT22;72375;59.302;18.204;2023-08-24T09:09:20;22.50;90.10
11664;DHT22;72375;59.302;18.204;2023-08-24T09:12:08;22.60;90.40
11664;DHT22;72375;59.302;18.204;2023-08-24T09:14:54;22.70;89.80
11664;DHT22;72375;59.302;18.204;2023-08-24T09:17:42;23.00;89.30
11664;DHT22;72375;59.302;18.204;2023-08-24T09:20:29;23.00;88.60
11664;DHT22;72375;59.302;18.204;2023-08-24T09:23:18;23.00;88.70
11664;DHT22;72375;59.302;18.204;2023-08-24T09:26:05;23.10;88.30
11664;DHT22;72375;59.302;18.204;2023-08-24T09:28:52;23.30;88.10
11664;DHT22;72375;59.302;18.204;2023-08-24T09:31:39;23.60;87.80
11664;DHT22;72375;59.302;18.204;2023-08-24T09:34:24;24.00;87.40
11664;DHT22;72375;59.302;18.204;2023-08-24T09:37:14;24.30;86.80
11664;DHT22;72375;59.302;18.204;2023-08-24T09:40:02;24.80;86.00
11664;DHT22;72375;59.302;18.204;2023-08-24T09:42:52;25.00;85.50
11664;DHT22;72375;59.302;18.204;2023-08-24T09:45:39;25.10;84.60
11664;DHT22;72375;59.302;18.204;2023-08-24T09:48:32;25.30;84.20
11664;DHT22;72375;59.302;18.204;2023-08-24T09:51:18;25.50;83.80
11664;DHT22;72375;59.302;18.204;2023-08-24T09:54:05;25.90;82.70
11664;DHT22;72375;59.302;18.204;2023-08-24T09:56:55;26.40;81.80
11664;DHT22;72375;59.302;18.204;2023-08-24T09:59:43;26.90;80.50
11664;DHT22;72375;59.302;18.204;2023-08-24T10:02:36;27.20;79.40
11664;DHT22;72375;59.302;18.204;2023-08-24T10:05:23;27.40;78.50
11664;DHT22;72375;59.302;18.204;2023-08-24T10:08:10;27.70;78.70
11664;DHT22;72375;59.302;18.204;2023-08-24T10:10:57;27.90;78.30
11664;DHT22;72375;59.302;18.204;2023-08-24T10:13:47;28.00;77.10
11664;DHT22;72375;59.302;18.204;2023-08-24T10:16:36;28.10;77.10
11664;DHT22;72375;59.302;18.204;2023-08-24T10:19:24;27.90;76.40
11664;DHT22;72375;59.302;18.204;2023-08-24T10:22:11;27.60;76.40
11664;DHT22;72375;59.302;18.204;2023-08-24T10:24:57;27.30;76.80
11664;DHT22;72375;59.302;18.204;2023-08-24T10:27:43;27.00;76.20
11664;DHT22;72375;59.302;18.204;2023-08-24T10:30:33;26.80;76.70
11664;DHT22;72375;59.302;18.204;2023-08-24T10:33:19;27.10;76.80
11664;DHT22;72375;59.302;18.204;2023-08-24T10:36:07;27.50;76.80
11664;DHT22;72375;59.302;18.204;2023-08-24T10:38:56;27.80;75.50
11664;DHT22;72375;59.302;18.204;2023-08-24T10:41:50;27.80;75.00
11664;DHT22;72375;59.302;18.204;2023-08-24T10:44:37;27.60;74.40
11664;DHT22;72375;59.302;18.204;2023-08-24T10:47:23;27.30;74.30
11664;DHT22;72375;59.302;18.204;2023-08-24T10:50:10;27.10;73.90
11664;DHT22;72375;59.302;18.204;2023-08-24T10:52:57;27.10;73.60
11664;DHT22;72375;59.302;18.204;2023-08-24T10:55:44;27.10;73.70
11664;DHT22;72375;59.302;18.204;2023-08-24T10:58:33;27.30;73.90
11664;DHT22;72375;59.302;18.204;2023-08-24T11:01:20;27.80;74.00
11664;DHT22;72375;59.302;18.204;2023-08-24T11:04:08;28.40;73.70
11664;DHT22;72375;59.302;18.204;2023-08-24T11:06:55;28.70;72.40
11664;DHT22;72375;59.302;18.204;2023-08-24T11:09:47;28.50;72.30
11664;DHT22;72375;59.302;18.204;2023-08-24T11:13:03;28.20;71.70
11664;DHT22;72375;59.302;18.204;2023-08-24T11:15:51;27.90;71.90
11664;DHT22;72375;59.302;18.204;2023-08-24T11:18:42;27.50;71.30
11664;DHT22;72375;59.302;18.204;2023-08-24T11:21:28;27.20;71.70
11664;DHT22;72375;59.302;18.204;2023-08-24T11:24:16;27.00;71.50
11664;DHT22;72375;59.302;18.204;2023-08-24T11:27:04;26.90;72.20
11664;DHT22;72375;59.302;18.204;2023-08-24T11:29:58;26.90;71.70
11664;DHT22;72375;59.302;18.204;2023-08-24T11:32:44;27.00;71.50
11664;DHT22;72375;59.302;18.204;2023-08-24T11:35:35;27.10;71.30
11664;DHT22;72375;59.302;18.204;2023-08-24T11:38:21;27.30;71.10
11664;DHT22;72375;59.302;18.204;2023-08-24T11:41:11;27.70;70.80
11664;DHT22;72375;59.302;18.204;2023-08-24T11:44:01;28.10;70.50
11664;DHT22;72375;59.302;18.204;2023-08-24T11:46:47;28.60;70.10
11664;DHT22;72375;59.302;18.204;2023-08-24T11:49:33;29.00;69.20
11664;DHT22;72375;59.302;18.204;2023-08-24T11:52:18;29.40;68.60
11664;DHT22;72375;59.302;18.204;2023-08-24T11:55:05;29.40;67.50
11664;DHT22;72375;59.302;18.204;2023-08-24T11:57:53;29.20;67.20
11664;DHT22;72375;59.302;18.204;2023-08-24T12:00:41;29.00;67.20
11664;DHT22;72375;59.302;18.204;2023-08-24T12:03:27;29.20;67.00
11664;DHT22;72375;59.302;18.204;2023-08-24T12:06:14;29.60;66.50
11664;DHT22;72375;59.302;18.204;2023-08-24T12:09:00;30.10;65.90
11664;DHT22;72375;59.302;18.204;2023-08-24T12:11:47;30.50;64.80
11664;DHT22;72375;59.302;18.204;2023-08-24T12:14:40;30.90;64.00
11664;DHT22;72375;59.302;18.204;2023-08-24T12:17:27;31.20;63.00
11664;DHT22;72375;59.302;18.204;2023-08-24T12:20:20;31.60;62.70
11664;DHT22;72375;59.302;18.204;2023-08-24T12:23:07;31.90;61.80
11664;DHT22;72375;59.302;18.204;2023-08-24T12:25:54;32.30;60.90
11664;DHT22;72375;59.302;18.204;2023-08-24T12:28:40;32.50;59.50
11664;DHT22;72375;59.302;18.204;2023-08-24T12:31:26;32.70;58.90
11664;DHT22;72375;59.302;18.204;2023-08-24T12:34:15;32.70;58.20
11664;DHT22;72375;59.302;18.204;2023-08-24T12:37:00;32.90;57.60
11664;DHT22;72375;59.302;18.204;2023-08-24T12:39:46;33.30;57.10
11664;DHT22;72375;59.302;18.204;2023-08-24T12:42:33;33.10;57.10
11664;DHT22;72375;59.302;18.204;2023-08-24T12:45:19;32.70;57.50
11664;DHT22;72375;59.302;18.204;2023-08-24T12:48:05;32.80;57.20
11664;DHT22;72375;59.302;18.204;2023-08-24T12:50:53;32.50;56.80
11664;DHT22;72375;59.302;18.204;2023-08-24T12:53:39;32.00;57.10
11664;DHT22;72375;59.302;18.204;2023-08-24T12:56:24;32.20;57.40
11664;DHT22;72375;59.302;18.204;2023-08-24T12:59:10;32.50;56.40
11664;DHT22;72375;59.302;18.204;2023-08-24T13:01:56;32.20;56.30
11664;DHT22;72375;59.302;18.204;2023-08-24T13:04:41;32.00;56.80
11664;DHT22;72375;59.302;18.204;2023-08-24T13:07:29;32.00;56.10
11664;DHT22;72375;59.302;18.204;2023-08-24T13:10:14;31.70;56.40
11664;DHT22;72375;59.302;18.204;2023-08-24T13:13:01;31.40;56.80
11664;DHT22;72375;59.302;18.204;2023-08-24T13:15:49;31.10;56.90
11664;DHT22;72375;59.302;18.204;2023-08-24T13:18:35;30.60;57.20
11664;DHT22;72375;59.302;18.204;2023-08-24T13:21:20;30.10;57.80
11664;DHT22;72375;59.302;18.204;2023-08-24T13:24:08;29.70;57.90
11664;DHT22;72375;59.302;18.204;2023-08-24T13:26:53;29.40;58.70
11664;DHT22;72375;59.302;18.204;2023-08-24T13:29:40;29.20;58.90
11664;DHT22;72375;59.302;18.204;2023-08-24T13:32:26;29.10;59.00
11664;DHT22;72375;59.302;18.204;2023-08-24T13:35:12;29.00;59.20
11664;DHT22;72375;59.302;18.204;2023-08-24T13:37:58;29.00;59.30
11664;DHT22;72375;59.302;18.204;2023-08-24T13:40:45;28.90;59.20
11664;DHT22;72375;59.302;18.204;2023-08-24T13:43:31;28.90;59.50
11664;DHT22;72375;59.302;18.204;2023-08-24T13:46:17;28.90;59.40
11664;DHT22;72375;59.302;18.204;2023-08-24T13:49:02;28.90;59.20
11664;DHT22;72375;59.302;18.204;2023-08-24T13:51:48;29.00;59.10
11664;DHT22;72375;59.302;18.204;2023-08-24T13:54:34;28.80;59.40
11664;DHT22;72375;59.302;18.204;2023-08-24T13:57:21;28.70;59.70
11664;DHT22;72375;59.302;18.204;2023-08-24T14:00:08;28.50;58.70
11664;DHT22;72375;59.302;18.204;2023-08-24T14:02:54;28.40;59.40
11664;DHT22;72375;59.302;18.204;2023-08-24T14:05:40;28.30;59.70
11664;DHT22;72375;59.302;18.204;2023-08-24T14:08:27;28.20;59.80
11664;DHT22;72375;59.302;18.204;2023-08-24T14:11:13;28.10;59.50
11664;DHT22;72375;59.302;18.204;2023-08-24T14:14:01;27.90;59.60
11664;DHT22;72375;59.302;18.204;2023-08-24T14:16:54;27.80;60.10
11664;DHT22;72375;59.302;18.204;2023-08-24T14:19:40;27.60;60.20
11664;DHT22;72375;59.302;18.204;2023-08-24T14:22:25;27.50;61.20
11664;DHT22;72375;59.302;18.204;2023-08-24T14:25:11;27.60;60.30
11664;DHT22;72375;59.302;18.204;2023-08-24T14:27:56;27.50;60.30
11664;DHT22;72375;59.302;18.204;2023-08-24T14:30:43;27.40;60.50
11664;DHT22;72375;59.302;18.204;2023-08-24T14:33:29;27.20;61.30
11664;DHT22;72375;59.302;18.204;2023-08-24T14:36:15;27.00;61.40
11664;DHT22;72375;59.302;18.204;2023-08-24T14:39:01;26.80;62.10
11664;DHT22;72375;59.302;18.204;2023-08-24T14:41:47;26.80;62.20
11664;DHT22;72375;59.302;18.204;2023-08-24T14:44:33;26.60;62.70
11664;DHT22;72375;59.302;18.204;2023-08-24T14:47:21;26.40;63.30
11664;DHT22;72375;59.302;18.204;2023-08-24T14:50:07;26.30;63.20
11664;DHT22;72375;59.302;18.204;2023-08-24T14:52:54;26.20;63.40
11664;DHT22;72375;59.302;18.204;2023-08-24T14:55:40;26.10;63.70
11664;DHT22;72375;59.302;18.204;2023-08-24T14:58:26;26.10;63.80
11664;DHT22;72375;59.302;18.204;2023-08-24T15:01:12;25.90;64.40
11664;DHT22;72375;59.302;18.204;2023-08-24T15:03:59;25.90;64.10
11664;DHT22;72375;59.302;18.204;2023-08-24T15:06:45;25.80;64.30
11664;DHT22;72375;59.302;18.204;2023-08-24T15:09:31;25.80;64.30
11664;DHT22;72375;59.302;18.204;2023-08-24T15:12:16;25.80;65.50
11664;DHT22;72375;59.302;18.204;2023-08-24T15:15:03;25.70;64.40
11664;DHT22;72375;59.302;18.204;2023-08-24T15:17:49;25.70;64.30
11664;DHT22;72375;59.302;18.204;2023-08-24T15:20:37;25.70;64.70
11664;DHT22;72375;59.302;18.204;2023-08-24T15:23:24;25.80;64.80
11664;DHT22;72375;59.302;18.204;2023-08-24T15:26:09;26.10;63.60
11664;DHT22;72375;59.302;18.204;2023-08-24T15:29:11;26.10;63.20
11664;DHT22;72375;59.302;18.204;2023-08-24T15:31:56;26.00;63.70
11664;DHT22;72375;59.302;18.204;2023-08-24T15:34:42;26.00;64.00
11664;DHT22;72375;59.302;18.204;2023-08-24T15:37:29;26.20;63.70
11664;DHT22;72375;59.302;18.204;2023-08-24T15:40:15;26.30;63.30
11664;DHT22;72375;59.302;18.204;2023-08-24T15:43:01;26.40;63.10
11664;DHT22;72375;59.302;18.204;2023-08-24T15:45:49;26.50;62.90
11664;DHT22;72375;59.302;18.204;2023-08-24T15:48:35;26.50;62.90
11664;DHT22;72375;59.302;18.204;2023-08-24T15:51:22;26.20;63.50
11664;DHT22;72375;59.302;18.204;2023-08-24T15:54:09;25.80;64.60
11664;DHT22;72375;59.302;18.204;2023-08-24T15:56:55;25.60;65.90
11664;DHT22;72375;59.302;18.204;2023-08-24T15:59:40;25.40;66.90
11664;DHT22;72375;59.302;18.204;2023-08-24T16:02:26;25.20;67.10
11664;DHT22;72375;59.302;18.204;2023-08-24T16:05:12;25.00;67.70
11664;DHT22;72375;59.302;18.204;2023-08-24T16:07:58;24.90;68.10
11664;DHT22;72375;59.302;18.204;2023-08-24T16:10:45;24.70;68.50
11664;DHT22;72375;59.302;18.204;2023-08-24T16:13:30;24.60;69.00
11664;DHT22;72375;59.302;18.204;2023-08-24T16:16:16;24.50;69.40
11664;DHT22;72375;59.302;18.204;2023-08-24T16:19:02;24.40;70.60
11664;DHT22;72375;59.302;18.204;2023-08-24T16:21:48;24.30;71.40
11664;DHT22;72375;59.302;18.204;2023-08-24T16:24:33;24.20;71.90
11664;DHT22;72375;59.302;18.204;2023-08-24T16:27:20;24.10;72.70
11664;DHT22;72375;59.302;18.204;2023-08-24T16:30:07;24.00;73.10
11664;DHT22;72375;59.302;18.204;2023-08-24T16:32:53;23.90;73.90
11664;DHT22;72375;59.302;18.204;2023-08-24T16:35:39;23.80;74.50
11664;DHT22;72375;59.302;18.204;2023-08-24T16:38:24;23.80;75.00
11664;DHT22;72375;59.302;18.204;2023-08-24T16:41:10;23.70;75.50
11664;DHT22;72375;59.302;18.204;2023-08-24T16:43:57;23.60;75.80
11664;DHT22;72375;59.302;18.204;2023-08-24T16:46:42;23.50;76.20
11664;DHT22;72375;59.302;18.204;2023-08-24T16:49:28;23.40;76.40
11664;DHT22;72375;59.302;18.204;2023-08-24T16:52:14;23.40;76.80
11664;DHT22;72375;59.302;18.204;2023-08-24T16:54:59;23.30;76.80
11664;DHT22;72375;59.302;18.204;2023-08-24T16:57:45;23.30;76.50
11664;DHT22;72375;59.302;18.204;2023-08-24T17:00:33;23.20;76.50
11664;DHT22;72375;59.302;18.204;2023-08-24T17:03:19;23.10;76.50
11664;DHT22;72375;59.302;18.204;2023-08-24T17:06:04;23.10;77.10
11664;DHT22;72375;59.302;18.204;2023-08-24T17:08:50;23.00;77.10
11664;DHT22;72375;59.302;18.204;2023-08-24T17:11:36;23.00;77.50
11664;DHT22;72375;59.302;18.204;2023-08-24T17:14:21;23.00;77.80